createdAt,value
2019-03-24T00:00:17.476Z,71.43
2019-03-24T00:02:46.869Z,68.17
2019-03-24T00:05:16.171Z,70.73
2019-03-24T00:07:45.589Z,67.20
2019-03-24T00:10:15.255Z,66.50
2019-03-24T00:12:44.550Z,69.23
2019-03-24T00:15:25.463Z,67.80
2019-03-24T00:17:45.559Z,65.97
2019-03-24T00:20:15.820Z,73.20
2019-03-24T00:22:45.136Z,67.23
2019-03-24T00:25:14.449Z,65.50
2019-03-24T00:27:44.167Z,69.67
2019-03-24T00:30:14.620Z,70.80
2019-03-24T00:32:44.593Z,70.57
2019-03-24T00:35:14.026Z,70.00
2019-03-24T00:37:43.811Z,69.87
2019-03-24T00:40:14.041Z,69.20
2019-03-24T00:42:43.597Z,74.80
2019-03-24T00:45:14.554Z,73.07
2019-03-24T00:47:44.279Z,69.57
2019-03-24T00:50:14.122Z,69.17
2019-03-24T00:52:43.600Z,77.37
2019-03-24T00:55:13.865Z,68.50
2019-03-24T00:57:43.161Z,70.60
2019-03-24T01:00:13.501Z,69.80
2019-03-24T01:02:43.099Z,86.07
2019-03-24T01:05:12.663Z,69.83
2019-03-24T01:07:41.978Z,75.47
2019-03-24T01:10:12.456Z,70.93
2019-03-24T01:12:41.927Z,68.93
2019-03-24T01:15:11.865Z,66.10
2019-03-24T01:17:41.180Z,73.37
2019-03-24T01:20:10.824Z,70.90
2019-03-24T01:22:40.139Z,73.13
2019-03-24T01:25:09.521Z,67.50
2019-03-24T01:27:39.043Z,68.67
2019-03-24T01:30:09.695Z,71.03
2019-03-24T01:32:39.216Z,71.13
2019-03-24T01:35:08.529Z,74.70
2019-03-24T01:37:37.846Z,65.30
2019-03-24T01:40:07.680Z,69.80
2019-03-24T01:42:37.157Z,70.10
2019-03-24T01:45:09.543Z,67.83
2019-03-24T01:47:39.301Z,79.47
2019-03-24T01:50:09.688Z,70.77
2019-03-24T01:52:38.998Z,70.47
2019-03-24T01:55:09.206Z,62.23
2019-03-24T01:57:38.833Z,60.33
2019-03-24T02:00:09.536Z,65.20
2019-03-24T02:02:38.986Z,71.00
2019-03-24T02:05:08.630Z,72.70
2019-03-24T02:07:37.940Z,67.37
2019-03-24T02:10:08.472Z,65.87
2019-03-24T02:12:37.784Z,70.80
2019-03-24T02:15:11.015Z,69.73
2019-03-24T02:17:40.316Z,74.90
2019-03-24T02:20:10.641Z,67.90
2019-03-24T02:22:39.962Z,70.07
2019-03-24T02:25:10.072Z,69.43
2019-03-24T02:27:39.396Z,68.37
2019-03-24T02:30:10.014Z,70.73
2019-03-24T02:32:39.393Z,65.87
2019-03-24T02:35:09.031Z,67.13
2019-03-24T02:37:38.351Z,69.57
2019-03-24T02:40:08.692Z,65.87
2019-03-24T02:42:38.210Z,61.37
2019-03-24T02:45:08.551Z,64.77
2019-03-24T02:47:37.939Z,61.60
2019-03-24T02:50:08.182Z,66.97
2019-03-24T02:52:37.557Z,68.90
2019-03-24T02:55:08.206Z,74.10
2019-03-24T02:57:37.594Z,76.73
2019-03-24T03:00:08.998Z,74.50
2019-03-24T03:02:38.376Z,69.13
2019-03-24T03:05:09.314Z,74.80
2019-03-24T03:07:38.637Z,77.50
2019-03-24T03:10:09.062Z,74.00
2019-03-24T03:12:38.519Z,78.83
2019-03-24T03:15:09.580Z,78.57
2019-03-24T03:17:39.112Z,79.03
2019-03-24T03:20:09.749Z,78.83
2019-03-24T03:22:39.127Z,74.20
2019-03-24T03:25:08.904Z,79.40
2019-03-24T03:27:38.328Z,70.83
2019-03-24T03:30:09.265Z,75.20
2019-03-24T03:32:38.653Z,73.70
2019-03-24T03:35:10.074Z,77.20
2019-03-24T03:37:39.485Z,80.53
2019-03-24T03:40:09.705Z,73.40
2019-03-24T03:42:40.255Z,75.43
2019-03-24T03:45:11.554Z,73.67
2019-03-24T03:47:41.025Z,79.83
2019-03-24T03:50:10.802Z,79.27
2019-03-24T03:52:40.213Z,81.17
2019-03-24T03:55:10.087Z,77.80
2019-03-24T03:57:39.452Z,75.27
2019-03-24T04:00:10.514Z,76.57
2019-03-24T04:02:39.845Z,77.87
2019-03-24T04:05:09.688Z,78.83
2019-03-24T04:07:39.015Z,74.20
2019-03-24T04:10:09.131Z,74.43
2019-03-24T04:12:38.433Z,66.87
2019-03-24T04:15:08.772Z,66.53
2019-03-24T04:17:38.090Z,67.37
2019-03-24T04:20:08.366Z,62.23
2019-03-24T04:22:38.146Z,62.43
2019-03-24T04:25:08.003Z,64.27
2019-03-24T04:27:37.293Z,66.63
2019-03-24T04:30:08.692Z,66.03
2019-03-24T04:32:38.123Z,68.10
2019-03-24T04:35:08.494Z,68.40
2019-03-24T04:37:37.854Z,66.43
2019-03-24T04:40:08.108Z,63.03
2019-03-24T04:42:37.396Z,62.23
2019-03-24T04:45:08.552Z,71.00
2019-03-24T04:47:37.851Z,69.70
2019-03-24T04:50:08.805Z,68.30
2019-03-24T04:52:38.090Z,80.57
2019-03-24T04:55:08.356Z,74.70
2019-03-24T04:57:37.823Z,77.27
2019-03-24T05:00:08.858Z,75.03
2019-03-24T05:02:38.515Z,70.70
2019-03-24T05:05:08.471Z,67.53
2019-03-24T05:07:38.812Z,66.83
2019-03-24T05:10:11.178Z,72.07
2019-03-24T05:12:40.479Z,72.53
2019-03-24T05:15:10.253Z,63.13
2019-03-24T05:17:39.544Z,78.03
2019-03-24T05:20:09.407Z,69.53
2019-03-24T05:22:38.724Z,73.63
2019-03-24T05:25:08.162Z,72.60
2019-03-24T05:27:37.476Z,65.63
2019-03-24T05:30:10.484Z,73.93
2019-03-24T05:32:39.927Z,70.93
2019-03-24T05:35:09.671Z,70.50
2019-03-24T05:37:38.992Z,68.80
2019-03-24T05:40:08.365Z,68.07
2019-03-24T05:42:37.678Z,64.47
2019-03-24T05:45:09.288Z,61.90
2019-03-24T05:47:38.587Z,65.93
2019-03-24T05:50:08.808Z,70.17
2019-03-24T05:52:38.128Z,65.30
2019-03-24T05:55:08.492Z,70.20
2019-03-24T05:57:37.823Z,65.63
2019-03-24T06:00:09.171Z,67.93
2019-03-24T06:02:38.568Z,68.90
2019-03-24T06:05:08.416Z,74.73
2019-03-24T06:07:37.753Z,66.03
2019-03-24T06:10:08.222Z,73.83
2019-03-24T06:12:37.542Z,70.47
2019-03-24T06:15:09.146Z,69.23
2019-03-24T06:17:47.399Z,73.63
2019-03-24T06:20:10.767Z,70.70
2019-03-24T06:22:40.183Z,67.53
2019-03-24T06:25:10.005Z,68.50
2019-03-24T06:27:39.488Z,78.27
2019-03-24T06:30:09.805Z,69.67
2019-03-24T06:32:39.102Z,71.93
2019-03-24T06:35:09.437Z,73.57
2019-03-24T06:37:38.760Z,72.13
2019-03-24T06:40:09.101Z,68.43
2019-03-24T06:42:38.493Z,70.83
2019-03-24T06:45:08.458Z,71.00
2019-03-24T06:47:38.048Z,72.67
2019-03-24T06:50:07.892Z,72.27
2019-03-24T06:52:37.288Z,110.80
2019-03-24T06:55:06.951Z,76.00
2019-03-24T06:57:36.258Z,72.70
2019-03-24T07:00:08.384Z,70.37
2019-03-24T07:02:37.775Z,71.10
2019-03-24T07:05:07.809Z,73.80
2019-03-24T07:07:37.122Z,68.13
2019-03-24T07:10:09.064Z,77.27
2019-03-24T07:12:38.460Z,78.93
2019-03-24T07:15:08.530Z,72.03
2019-03-24T07:17:37.922Z,69.33
2019-03-24T07:20:07.970Z,72.93
2019-03-24T07:22:37.248Z,72.70
2019-03-24T07:25:07.376Z,71.37
2019-03-24T07:27:36.670Z,69.83
2019-03-24T07:30:09.377Z,75.50
2019-03-24T07:32:38.709Z,77.17
2019-03-24T07:35:08.061Z,73.23
2019-03-24T07:37:37.417Z,69.43
2019-03-24T07:40:08.875Z,71.63
2019-03-24T07:42:38.273Z,75.70
2019-03-24T07:45:09.149Z,74.97
2019-03-24T07:47:38.447Z,70.97
2019-03-24T07:50:09.401Z,67.57
2019-03-24T07:52:38.795Z,70.30
2019-03-24T07:55:09.352Z,71.13
2019-03-24T07:57:38.645Z,67.20
2019-03-24T08:00:10.203Z,70.07
2019-03-24T08:02:51.098Z,72.37
2019-03-24T08:05:18.365Z,69.57
2019-03-24T08:07:47.820Z,71.67
2019-03-24T08:10:17.483Z,75.70
2019-03-24T08:12:46.972Z,77.23
2019-03-24T08:15:16.601Z,70.50
2019-03-24T08:17:45.946Z,73.23
2019-03-24T08:20:15.248Z,79.23
2019-03-24T08:22:44.562Z,83.30
2019-03-24T08:25:13.948Z,85.17
2019-03-24T08:27:43.254Z,80.57
2019-03-24T08:30:12.931Z,75.10
2019-03-24T08:32:43.319Z,76.20
2019-03-24T08:35:12.999Z,74.30
2019-03-24T08:37:42.291Z,70.43
2019-03-24T08:40:11.941Z,64.60
2019-03-24T08:42:41.266Z,64.93
2019-03-24T08:45:13.614Z,66.50
2019-03-24T08:47:42.938Z,66.47
2019-03-24T08:50:12.310Z,64.03
2019-03-24T08:52:41.697Z,66.10
2019-03-24T08:55:11.364Z,60.87
2019-03-24T08:57:40.679Z,63.47
2019-03-24T09:00:10.043Z,58.60
2019-03-24T09:02:39.549Z,58.80
2019-03-24T09:05:08.989Z,52.70
2019-03-24T09:07:38.302Z,54.80
2019-03-24T09:10:08.625Z,54.63
2019-03-24T09:12:38.040Z,46.13
2019-03-24T09:15:08.283Z,48.30
2019-03-24T09:17:37.669Z,48.50
2019-03-24T09:20:07.940Z,49.37
2019-03-24T09:22:37.301Z,49.40
2019-03-24T09:25:07.978Z,46.70
2019-03-24T09:27:37.278Z,46.87
2019-03-24T09:30:18.049Z,48.37
2019-03-24T09:32:47.354Z,49.67
2019-03-24T09:35:16.662Z,54.30
2019-03-24T09:37:46.351Z,55.17
2019-03-24T09:40:18.895Z,53.97
2019-03-24T09:42:48.137Z,57.97
2019-03-24T09:45:17.456Z,62.27
2019-03-24T09:47:46.759Z,59.07
2019-03-24T09:50:16.099Z,62.93
2019-03-24T09:52:45.605Z,62.10
2019-03-24T09:55:14.936Z,52.27
2019-03-24T09:57:44.232Z,56.77
2019-03-24T10:00:13.689Z,58.00
2019-03-24T10:02:42.994Z,55.60
2019-03-24T10:05:13.148Z,62.97
2019-03-24T10:07:42.481Z,59.57
2019-03-24T10:10:12.229Z,55.67
2019-03-24T10:12:41.641Z,61.57
2019-03-24T10:15:11.522Z,54.43
2019-03-24T10:17:40.813Z,53.23
2019-03-24T10:20:10.767Z,56.50
2019-03-24T10:22:40.135Z,60.07
2019-03-24T10:25:09.523Z,59.97
2019-03-24T10:27:38.837Z,57.63
2019-03-24T10:30:09.198Z,60.93
2019-03-24T10:32:38.561Z,66.30
2019-03-24T10:35:08.415Z,72.97
2019-03-24T10:37:37.917Z,65.50
2019-03-24T10:40:07.862Z,60.97
2019-03-24T10:42:38.316Z,63.80
2019-03-24T10:45:08.248Z,55.53
2019-03-24T10:47:37.968Z,57.40
2019-03-24T10:50:09.293Z,62.77
2019-03-24T10:52:39.051Z,51.67
2019-03-24T10:55:10.803Z,56.57
2019-03-24T10:57:40.777Z,52.20
2019-03-24T11:00:40.196Z,49.43
2019-03-24T11:03:10.064Z,51.30
2019-03-24T11:05:39.437Z,41.97
2019-03-24T11:08:09.091Z,39.13
2019-03-24T11:10:38.398Z,47.63
2019-03-24T11:13:07.921Z,45.67
2019-03-24T11:15:37.220Z,45.57
2019-03-24T11:18:06.897Z,40.67
2019-03-24T11:20:36.196Z,36.33
2019-03-24T11:23:05.778Z,41.57
2019-03-24T11:25:35.626Z,42.33
2019-03-24T11:28:04.923Z,42.23
2019-03-24T11:30:34.551Z,42.90
2019-03-24T11:33:04.164Z,35.40
2019-03-24T11:35:33.976Z,36.30
2019-03-24T11:38:03.343Z,31.10
2019-03-24T11:40:32.727Z,32.80
2019-03-24T11:43:02.359Z,33.27
2019-03-24T11:45:31.771Z,30.23
2019-03-24T11:48:01.241Z,26.67
2019-03-24T11:50:30.566Z,29.70
2019-03-24T11:52:59.887Z,24.63
2019-03-24T11:55:29.214Z,27.10
2019-03-24T11:58:05.767Z,26.47
2019-03-24T12:00:37.807Z,26.23
2019-03-24T12:03:07.946Z,24.83
2019-03-24T12:05:37.597Z,33.93
2019-03-24T12:08:07.168Z,26.43
2019-03-24T12:10:37.121Z,23.33
2019-03-24T12:13:06.434Z,24.57
2019-03-24T12:15:36.077Z,23.77
2019-03-24T12:18:05.555Z,22.97
2019-03-24T12:20:34.940Z,23.07
2019-03-24T12:23:04.222Z,23.77
2019-03-24T12:25:33.535Z,25.77
2019-03-24T12:28:02.908Z,22.63
2019-03-24T12:30:32.301Z,20.83
2019-03-24T12:33:02.185Z,21.63
2019-03-24T12:35:31.644Z,22.13
2019-03-24T12:38:01.155Z,22.13
2019-03-24T12:40:30.549Z,20.33
2019-03-24T12:42:59.946Z,19.20
2019-03-24T12:45:29.288Z,20.17
2019-03-24T12:47:58.608Z,17.43
2019-03-24T12:50:31.784Z,18.70
2019-03-24T12:52:59.303Z,16.03
2019-03-24T12:55:28.877Z,15.33
2019-03-24T12:57:58.394Z,17.53
2019-03-24T13:00:34.263Z,16.83
2019-03-24T13:03:03.919Z,17.30
2019-03-24T13:05:33.316Z,18.37
2019-03-24T13:08:11.168Z,16.77
2019-03-24T13:10:42.003Z,17.07
2019-03-24T13:13:12.361Z,18.70
2019-03-24T13:15:42.254Z,18.93
2019-03-24T13:18:11.547Z,17.07
2019-03-24T13:20:41.150Z,19.13
2019-03-24T13:23:10.450Z,17.13
2019-03-24T13:25:39.855Z,16.27
2019-03-24T13:28:09.312Z,15.27
2019-03-24T13:30:38.751Z,13.80
2019-03-24T13:33:08.243Z,15.57
2019-03-24T13:35:37.641Z,20.73
2019-03-24T13:38:07.000Z,20.17
2019-03-24T13:40:36.292Z,17.73
2019-03-24T13:43:05.866Z,14.40
2019-03-24T13:45:35.370Z,11.57
2019-03-24T13:48:04.882Z,12.87
2019-03-24T13:50:34.238Z,13.30
2019-03-24T13:53:03.657Z,11.87
2019-03-24T13:55:33.256Z,11.93
2019-03-24T13:58:02.901Z,11.00
2019-03-24T14:00:32.324Z,12.30
2019-03-24T14:03:01.955Z,11.40
2019-03-24T14:05:31.332Z,9.87
2019-03-24T14:08:00.806Z,9.20
2019-03-24T14:10:30.240Z,10.60
2019-03-24T14:12:59.624Z,13.07
2019-03-24T14:15:28.999Z,13.13
2019-03-24T14:17:58.561Z,10.37
2019-03-24T14:20:28.054Z,9.60
2019-03-24T14:22:57.417Z,10.20
2019-03-24T14:25:26.781Z,11.23
2019-03-24T14:27:56.051Z,11.70
2019-03-24T14:30:42.782Z,9.37
2019-03-24T14:33:12.296Z,9.40
2019-03-24T14:35:42.305Z,9.03
2019-03-24T14:38:11.668Z,7.80
2019-03-24T14:40:41.453Z,8.00
2019-03-24T14:43:10.751Z,7.30
2019-03-24T14:45:40.063Z,8.10
2019-03-24T14:48:09.354Z,7.43
2019-03-24T14:50:38.962Z,10.83
2019-03-24T14:53:11.268Z,11.87
2019-03-24T14:55:40.688Z,8.10
2019-03-24T14:58:10.002Z,8.67
2019-03-24T15:00:41.360Z,7.17
2019-03-24T15:03:11.533Z,9.87
2019-03-24T15:05:40.842Z,9.67
2019-03-24T15:08:11.088Z,9.23
2019-03-24T15:10:40.465Z,11.87
2019-03-24T15:13:10.028Z,9.40
2019-03-24T15:15:39.378Z,13.83
2019-03-24T15:18:08.773Z,8.33
2019-03-24T15:20:38.531Z,9.23
2019-03-24T15:23:08.066Z,10.17
2019-03-24T15:25:37.555Z,6.47
2019-03-24T15:28:06.995Z,9.17
2019-03-24T15:30:36.491Z,9.17
2019-03-24T15:33:05.787Z,8.10
2019-03-24T15:35:35.284Z,7.83
2019-03-24T15:38:08.413Z,13.83
2019-03-24T15:40:35.769Z,9.40
2019-03-24T15:43:05.067Z,9.03
2019-03-24T15:45:34.368Z,8.53
2019-03-24T15:48:03.994Z,9.40
2019-03-24T15:50:33.374Z,8.77
2019-03-24T15:53:02.649Z,7.23
2019-03-24T15:55:32.021Z,7.67
2019-03-24T15:58:01.421Z,9.47
2019-03-24T16:00:42.162Z,7.33
2019-03-24T16:03:12.974Z,8.17
2019-03-24T16:05:42.331Z,13.57
2019-03-24T16:08:11.686Z,11.53
2019-03-24T16:10:41.235Z,9.37
2019-03-24T16:13:10.565Z,8.60
2019-03-24T16:15:40.241Z,7.53
2019-03-24T16:18:09.669Z,8.53
2019-03-24T16:20:39.324Z,9.43
2019-03-24T16:23:08.636Z,10.87
2019-03-24T16:25:37.924Z,6.97
2019-03-24T16:28:07.502Z,7.17
2019-03-24T16:30:37.007Z,6.63
2019-03-24T16:33:06.511Z,8.50
2019-03-24T16:35:36.044Z,7.53
2019-03-24T16:38:05.504Z,5.83
2019-03-24T16:40:34.905Z,6.80
2019-03-24T16:43:04.346Z,7.37
2019-03-24T16:45:34.698Z,4.33
2019-03-24T16:48:04.468Z,5.77
2019-03-24T16:50:33.959Z,6.07
2019-03-24T16:53:03.438Z,5.43
2019-03-24T16:55:32.888Z,4.57
2019-03-24T16:58:02.196Z,3.50
2019-03-24T17:00:31.905Z,4.40
2019-03-24T17:03:01.691Z,7.50
2019-03-24T17:05:31.014Z,5.37
2019-03-24T17:08:00.800Z,6.67
2019-03-24T17:10:30.210Z,5.13
2019-03-24T17:12:59.601Z,6.87
2019-03-24T17:15:29.473Z,5.40
2019-03-24T17:17:59.043Z,5.27
2019-03-24T17:20:29.025Z,5.67
2019-03-24T17:22:58.344Z,5.77
2019-03-24T17:25:27.618Z,5.00
2019-03-24T17:27:57.068Z,6.03
2019-03-24T17:30:26.523Z,6.80
2019-03-24T17:32:55.853Z,5.83
2019-03-24T17:35:25.215Z,7.00
2019-03-24T17:37:54.745Z,6.70
2019-03-24T17:40:24.345Z,7.23
2019-03-24T17:42:53.719Z,7.17
2019-03-24T17:45:22.994Z,5.73
2019-03-24T17:47:52.390Z,5.93
2019-03-24T17:50:22.083Z,6.20
2019-03-24T17:52:51.584Z,5.23
2019-03-24T17:55:27.514Z,6.60
2019-03-24T17:57:52.211Z,10.43
2019-03-24T18:00:36.115Z,9.67
2019-03-24T18:03:06.177Z,7.50
2019-03-24T18:05:35.765Z,7.03
2019-03-24T18:08:05.597Z,5.77
2019-03-24T18:10:35.315Z,7.13
2019-03-24T18:13:05.340Z,12.83
2019-03-24T18:15:34.644Z,17.97
2019-03-24T18:18:04.024Z,8.53
2019-03-24T18:20:36.032Z,6.80
2019-03-24T18:23:05.796Z,6.77
2019-03-24T18:25:35.159Z,10.70
2019-03-24T18:28:04.813Z,7.87
2019-03-24T18:30:34.358Z,8.10
2019-03-24T18:33:03.801Z,9.47
2019-03-24T18:35:33.421Z,7.07
2019-03-24T18:38:02.790Z,7.17
2019-03-24T18:40:32.116Z,6.70
2019-03-24T18:43:01.432Z,8.60
2019-03-24T18:45:30.704Z,9.30
2019-03-24T18:48:00.305Z,7.23
2019-03-24T18:50:29.928Z,4.90
2019-03-24T18:52:59.345Z,8.20
2019-03-24T18:55:28.667Z,5.37
2019-03-24T19:04:21.882Z,7.07
2019-03-24T19:07:17.840Z,8.43
2019-03-24T19:09:47.110Z,7.53
2019-03-24T19:12:16.427Z,12.63
2019-03-24T19:14:45.869Z,23.73
2019-03-24T19:17:15.251Z,9.80
2019-03-24T19:19:44.784Z,9.93
2019-03-24T19:22:14.289Z,10.87
2019-03-24T19:24:43.616Z,12.33
2019-03-24T19:27:12.906Z,10.17
2019-03-24T19:29:42.205Z,9.83
2019-03-24T19:32:11.875Z,10.30
2019-03-24T19:34:41.202Z,9.90
2019-03-24T19:37:11.186Z,13.43
2019-03-24T19:39:40.756Z,10.70
2019-03-24T19:42:10.529Z,9.80
2019-03-24T19:44:40.052Z,10.90
2019-03-24T19:47:09.350Z,9.83
2019-03-24T19:49:39.027Z,16.20
2019-03-24T19:52:08.421Z,12.87
2019-03-24T19:54:38.056Z,10.30
2019-03-24T19:57:07.424Z,9.03
2019-03-24T19:59:36.721Z,9.40
2019-03-24T20:02:06.081Z,11.03
2019-03-24T20:04:35.422Z,10.80
2019-03-24T20:07:04.861Z,9.07
2019-03-24T20:09:34.342Z,11.30
2019-03-24T20:12:03.772Z,9.17
2019-03-24T20:14:33.222Z,9.77
2019-03-24T20:17:02.772Z,13.73
2019-03-24T20:19:32.251Z,11.87
2019-03-24T20:22:01.545Z,11.17
2019-03-24T20:24:30.874Z,11.00
2019-03-24T20:27:00.202Z,11.23
2019-03-24T20:29:29.694Z,13.50
2019-03-24T20:31:59.203Z,11.63
2019-03-24T20:34:28.503Z,12.03
2019-03-24T20:36:57.832Z,14.47
2019-03-24T20:39:27.162Z,11.40
2019-03-24T20:41:56.473Z,10.70
2019-03-24T20:44:25.757Z,11.67
2019-03-24T20:46:55.071Z,6.60
2019-03-24T20:49:24.387Z,13.63
2019-03-24T20:51:53.853Z,10.50
2019-03-24T20:54:23.279Z,10.07
2019-03-24T20:56:52.588Z,10.33
2019-03-24T20:59:22.015Z,11.00
2019-03-24T21:01:51.479Z,8.63
2019-03-24T21:04:20.809Z,9.47
2019-03-24T21:06:50.112Z,10.63
2019-03-24T21:09:19.515Z,7.47
2019-03-24T21:11:48.816Z,10.60
2019-03-24T21:14:18.441Z,10.80
2019-03-24T21:16:47.744Z,9.53
2019-03-24T21:19:17.199Z,10.97
2019-03-24T21:21:46.579Z,11.97
2019-03-24T21:24:15.878Z,10.23
2019-03-24T21:26:45.389Z,7.43
2019-03-24T21:29:14.666Z,11.73
2019-03-24T21:31:44.014Z,11.77
2019-03-24T21:34:13.319Z,9.40
2019-03-24T21:36:42.619Z,10.17
2019-03-24T21:39:11.950Z,11.80
2019-03-24T21:41:41.238Z,10.07
2019-03-24T21:44:10.563Z,8.83
2019-03-24T21:46:39.859Z,11.20
2019-03-24T21:49:09.525Z,11.20
2019-03-24T21:51:38.807Z,8.67
2019-03-24T21:54:08.188Z,10.87
2019-03-24T21:56:37.472Z,11.17
2019-03-24T21:59:06.794Z,10.90
2019-03-24T22:01:36.251Z,10.40
2019-03-24T22:04:05.515Z,9.60
2019-03-24T22:06:34.958Z,8.63
2019-03-24T22:09:06.687Z,9.90
2019-03-24T22:11:35.986Z,11.50
2019-03-24T22:14:05.720Z,10.23
2019-03-24T22:16:35.030Z,8.63
2019-03-24T22:19:04.644Z,8.57
2019-03-24T22:21:33.951Z,12.13
2019-03-24T22:24:03.258Z,10.17
2019-03-24T22:26:32.541Z,12.73
2019-03-24T22:29:01.931Z,13.73
2019-03-24T22:31:31.405Z,12.13
2019-03-24T22:34:00.706Z,8.20
2019-03-24T22:36:30.076Z,13.33
2019-03-24T22:38:59.458Z,15.40
2019-03-24T22:41:28.742Z,10.37
2019-03-24T22:43:58.052Z,9.03
2019-03-24T22:46:27.460Z,10.53
2019-03-24T22:48:56.848Z,11.10
2019-03-24T22:51:26.444Z,9.23
2019-03-24T22:54:03.204Z,10.27
2019-03-24T22:56:27.151Z,12.27
2019-03-24T22:58:56.527Z,10.73
2019-03-24T23:01:26.463Z,12.60
2019-03-24T23:03:55.829Z,15.60
2019-03-24T23:06:28.370Z,8.87
2019-03-24T23:08:58.982Z,11.57
2019-03-24T23:11:29.442Z,11.03
2019-03-24T23:14:01.343Z,12.70
2019-03-24T23:16:32.885Z,11.43
2019-03-24T23:19:03.839Z,11.67
2019-03-24T23:21:35.012Z,14.23
2019-03-24T23:24:14.848Z,9.97
2019-03-24T23:26:38.476Z,12.03
2019-03-24T23:29:09.617Z,11.00
2019-03-24T23:31:39.065Z,14.60
2019-03-24T23:34:08.375Z,12.40
2019-03-24T23:36:37.684Z,9.83
2019-03-24T23:39:08.317Z,11.27
2019-03-24T23:41:37.736Z,11.23
2019-03-24T23:44:07.112Z,10.53
2019-03-24T23:46:36.433Z,11.60
2019-03-24T23:49:08.030Z,12.07
2019-03-24T23:51:39.100Z,16.40
2019-03-24T23:54:10.441Z,14.80
2019-03-24T23:56:40.803Z,12.00
2019-03-24T23:59:11.893Z,10.53
